Time;durP1;ratioP1;P1;durP2;ratioP2;P2;SDS_P1;SDS_P2;PMS_P1;PMS_P2;Temp;Humidity;BMP_temperature;BMP_pressure;BME280_temperature;BME280_humidity;BME280_pressure;Samples;Min_cycle;Max_cycle;Signal;HPM_P1;HPM_P2
2021/08/21 00:00:00;;;;;;;7.30;6.70;;;16.50;99.90;;;;;;5090170;28;21090;-78
2021/08/21 00:02:28;;;;;;;7.93;6.47;;;16.60;99.90;;;;;;5089695;28;21257;-78
2021/08/21 00:04:57;;;;;;;7.00;6.40;;;16.60;99.90;;;;;;5090695;28;20630;-78
2021/08/21 00:07:27;;;;;;;7.50;6.90;;;16.60;99.90;;;;;;5090070;28;20629;-78
2021/08/21 00:09:55;;;;;;;7.03;6.33;;;16.60;99.90;;;;;;5090465;28;20616;-78
2021/08/21 00:12:23;;;;;;;7.67;6.97;;;16.60;99.90;;;;;;5089101;28;21186;-78
2021/08/21 00:14:50;;;;;;;7.77;6.97;;;16.60;99.90;;;;;;5090778;28;20611;-78
2021/08/21 00:17:17;;;;;;;7.27;6.57;;;16.60;99.90;;;;;;5083297;28;20761;-78
2021/08/21 00:19:45;;;;;;;7.70;7.10;;;16.60;99.90;;;;;;5090260;28;20619;-78
2021/08/21 00:22:13;;;;;;;7.17;6.47;;;16.60;99.90;;;;;;5089446;28;21003;-78
2021/08/21 00:24:40;;;;;;;6.97;6.40;;;16.60;99.90;;;;;;5089896;28;20961;-78
2021/08/21 00:27:07;;;;;;;7.37;6.67;;;16.60;99.90;;;;;;5090061;28;21159;-78
2021/08/21 00:29:34;;;;;;;7.87;7.07;;;16.60;99.90;;;;;;5090568;28;20616;-78
2021/08/21 00:32:01;;;;;;;8.33;7.60;;;16.60;99.90;;;;;;5070258;28;20622;-78
2021/08/21 00:34:28;;;;;;;6.67;6.07;;;16.60;99.90;;;;;;5070087;28;20610;-78
2021/08/21 00:36:57;;;;;;;7.93;7.17;;;16.60;99.90;;;;;;5069918;28;20689;-78
2021/08/21 00:39:24;;;;;;;8.27;7.50;;;16.60;99.90;;;;;;5068941;28;20625;-78
2021/08/21 00:41:51;;;;;;;8.37;7.57;;;16.60;99.90;;;;;;5071243;28;20611;-78
2021/08/21 00:44:18;;;;;;;7.73;7.03;;;16.50;99.90;;;;;;5074678;28;20658;-78
2021/08/21 00:46:58;;;;;;;7.80;7.00;;;16.50;99.90;;;;;;5092338;28;20615;-78
2021/08/21 00:49:25;;;;;;;8.53;7.60;;;16.40;99.90;;;;;;5083449;28;20618;-78
2021/08/21 00:51:52;;;;;;;7.67;6.90;;;16.30;99.90;;;;;;5068200;28;20981;-78
2021/08/21 00:54:20;;;;;;;7.30;6.70;;;16.20;99.90;;;;;;5071898;28;20626;-78
2021/08/21 00:56:47;;;;;;;8.23;7.43;;;16.20;99.90;;;;;;5086737;28;20648;-78
2021/08/21 00:59:14;;;;;;;7.27;6.70;;;16.20;99.90;;;;;;5070821;28;20605;-78
2021/08/21 01:01:41;;;;;;;7.50;6.80;;;16.10;99.90;;;;;;5070239;28;20617;-78
2021/08/21 01:04:09;;;;;;;7.70;7.03;;;16.20;99.90;;;;;;5084361;28;20633;-78
2021/08/21 01:06:42;;;;;;;11.23;7.30;;;16.20;99.90;;;;;;5073239;28;21123;-78
2021/08/21 01:09:13;;;;;;;8.40;7.70;;;16.20;99.90;;;;;;5069428;28;20618;-78
2021/08/21 01:11:45;;;;;;;7.80;7.10;;;16.10;99.90;;;;;;5069037;28;20637;-78
2021/08/21 01:14:14;;;;;;;8.63;7.07;;;16.20;99.90;;;;;;5069812;28;20614;-78
2021/08/21 01:16:42;;;;;;;7.67;6.97;;;16.30;99.90;;;;;;5070182;28;20650;-78
2021/08/21 01:19:13;;;;;;;7.23;6.50;;;16.20;99.90;;;;;;5072927;28;20647;-78
2021/08/21 01:21:42;;;;;;;8.20;7.50;;;16.20;99.90;;;;;;5077854;28;20639;-78
2021/08/21 01:24:11;;;;;;;8.17;7.47;;;16.00;99.90;;;;;;5075839;28;21025;-78
2021/08/21 01:26:52;;;;;;;9.57;8.20;;;16.00;99.90;;;;;;5066855;28;21061;-78
2021/08/21 01:29:20;;;;;;;7.47;6.87;;;15.90;99.90;;;;;;5069054;28;20633;-78
2021/08/21 01:31:49;;;;;;;7.13;6.53;;;15.90;99.90;;;;;;5068116;28;20621;-78
2021/08/21 01:34:17;;;;;;;7.93;7.30;;;15.90;99.90;;;;;;5069537;28;20621;-78
2021/08/21 01:36:47;;;;;;;7.43;6.73;;;15.80;99.90;;;;;;5068329;28;20701;-78
2021/08/21 01:39:16;;;;;;;8.27;7.57;;;15.70;99.90;;;;;;5068976;28;21040;-78
2021/08/21 01:41:45;;;;;;;7.60;6.90;;;15.80;99.90;;;;;;5068765;28;20760;-78
2021/08/21 01:44:17;;;;;;;6.50;6.00;;;15.70;99.90;;;;;;5069303;28;20724;-78
2021/08/21 01:46:47;;;;;;;8.97;8.17;;;15.70;99.90;;;;;;5069387;28;20686;-78
2021/08/21 01:49:17;;;;;;;8.40;7.70;;;15.70;99.90;;;;;;5069798;28;20969;-78
2021/08/21 01:51:47;;;;;;;9.57;7.07;;;15.70;99.90;;;;;;5068228;28;20653;-79
2021/08/21 01:54:15;;;;;;;9.40;7.90;;;15.60;99.90;;;;;;5072935;28;20633;-78
2021/08/21 01:56:45;;;;;;;8.30;7.30;;;15.60;99.90;;;;;;5070370;28;20673;-78
2021/08/21 01:59:23;;;;;;;8.40;7.70;;;15.60;99.90;;;;;;5088400;28;22998;-78
2021/08/21 02:01:51;;;;;;;8.33;7.73;;;15.60;99.90;;;;;;5084376;28;20636;-78
2021/08/21 02:04:20;;;;;;;8.57;7.87;;;15.50;99.90;;;;;;5090225;28;20619;-78
2021/08/21 02:06:48;;;;;;;9.67;8.77;;;15.50;99.90;;;;;;5074994;28;20622;-78
2021/08/21 02:09:17;;;;;;;8.40;7.60;;;15.40;99.90;;;;;;5091879;28;21204;-78
2021/08/21 02:11:46;;;;;;;8.43;7.63;;;15.50;99.90;;;;;;5092229;28;20624;-78
2021/08/21 02:14:15;;;;;;;8.53;7.73;;;15.40;99.90;;;;;;5072692;28;20653;-78
2021/08/21 02:16:47;;;;;;;9.80;9.00;;;15.40;99.90;;;;;;5086883;28;21085;-78
2021/08/21 02:19:15;;;;;;;9.50;8.70;;;15.30;99.90;;;;;;5072096;28;21181;-78
2021/08/21 02:21:43;;;;;;;9.43;8.57;;;15.20;99.90;;;;;;5073012;28;20718;-78
2021/08/21 02:24:12;;;;;;;9.10;8.30;;;15.20;99.90;;;;;;5072319;28;20981;-78
2021/08/21 02:26:42;;;;;;;8.90;8.10;;;15.20;99.90;;;;;;5087421;28;21069;-78
2021/08/21 02:29:10;;;;;;;8.50;7.70;;;15.20;99.90;;;;;;5100335;28;20612;-78
2021/08/21 02:31:38;;;;;;;8.90;8.10;;;15.10;99.90;;;;;;5083416;28;20736;-78
2021/08/21 02:34:08;;;;;;;10.53;7.97;;;15.10;99.90;;;;;;5071254;28;20627;-78
2021/08/21 02:36:36;;;;;;;9.80;8.90;;;15.10;99.90;;;;;;5080405;28;20775;-78
2021/08/21 02:39:05;;;;;;;11.83;10.63;;;15.10;99.90;;;;;;5089972;28;20620;-78
2021/08/21 02:41:34;;;;;;;11.20;10.13;;;15.00;99.90;;;;;;5078272;28;20636;-78
2021/08/21 02:44:05;;;;;;;11.00;10.10;;;15.00;99.90;;;;;;5072628;28;20691;-78
2021/08/21 02:46:33;;;;;;;12.70;11.60;;;15.00;99.90;;;;;;5083048;28;20643;-78
2021/08/21 02:49:01;;;;;;;12.30;11.07;;;14.90;99.90;;;;;;5072825;28;20621;-78
2021/08/21 02:51:32;;;;;;;12.37;9.50;;;14.90;99.90;;;;;;5082413;28;21303;-78
2021/08/21 02:54:02;;;;;;;11.33;10.23;;;14.90;99.90;;;;;;5088752;28;20620;-78
2021/08/21 02:56:39;;;;;;;12.57;10.70;;;14.80;99.90;;;;;;5083563;28;21358;-78
2021/08/21 02:59:07;;;;;;;11.57;10.50;;;14.70;99.90;;;;;;5091486;28;20666;-78
2021/08/21 03:01:35;;;;;;;13.57;12.23;;;14.80;99.90;;;;;;5080151;28;20621;-78
2021/08/21 03:04:02;;;;;;;12.83;11.63;;;14.80;99.90;;;;;;5076589;28;20668;-78
2021/08/21 03:06:30;;;;;;;11.47;10.40;;;14.80;99.90;;;;;;5078605;28;20746;-77
2021/08/21 03:08:59;;;;;;;13.80;12.53;;;14.80;99.90;;;;;;5091607;28;21245;-78
2021/08/21 03:11:26;;;;;;;13.00;11.67;;;14.70;99.90;;;;;;5090946;28;20637;-78
2021/08/21 03:13:54;;;;;;;12.07;10.97;;;14.70;99.90;;;;;;5072771;28;20617;-78
2021/08/21 03:16:21;;;;;;;12.47;11.17;;;14.70;99.90;;;;;;5081730;28;20670;-78
2021/08/21 03:18:48;;;;;;;11.70;10.53;;;14.70;99.90;;;;;;5091528;28;20620;-78
2021/08/21 03:21:15;;;;;;;13.27;12.07;;;14.70;99.90;;;;;;5081371;28;20620;-78
2021/08/21 03:23:42;;;;;;;11.60;10.50;;;14.70;99.90;;;;;;5070860;28;21297;-78
2021/08/21 03:26:12;;;;;;;12.50;11.23;;;14.70;99.90;;;;;;5079366;28;20661;-78
2021/08/21 03:28:39;;;;;;;16.07;11.60;;;14.70;99.90;;;;;;5090928;28;20656;-78
2021/08/21 03:31:07;;;;;;;11.50;10.40;;;14.70;99.90;;;;;;5085626;28;20621;-78
2021/08/21 03:33:35;;;;;;;11.40;10.50;;;14.70;99.90;;;;;;5090631;28;20601;-78
2021/08/21 03:36:03;;;;;;;11.70;10.60;;;14.70;99.90;;;;;;5089974;28;20639;-78
2021/08/21 03:38:33;;;;;;;11.33;10.37;;;14.70;99.90;;;;;;5089958;28;21209;-78
2021/08/21 03:41:00;;;;;;;10.77;9.77;;;14.60;99.90;;;;;;5083497;28;20637;-78
2021/08/21 03:43:30;;;;;;;12.97;10.90;;;14.60;99.90;;;;;;5075034;28;20632;-78
2021/08/21 03:45:57;;;;;;;12.03;10.93;;;14.60;99.90;;;;;;5089297;28;20631;-78
2021/08/21 03:48:25;;;;;;;13.33;11.30;;;14.60;99.90;;;;;;5080832;28;20647;-78
2021/08/21 03:50:52;;;;;;;12.37;11.37;;;14.60;99.90;;;;;;5084229;28;20668;-78
2021/08/21 03:53:20;;;;;;;12.00;10.87;;;14.60;99.90;;;;;;5069969;28;20703;-78
2021/08/21 03:55:49;;;;;;;14.13;12.77;;;14.60;99.90;;;;;;5071619;28;21210;-78
2021/08/21 03:58:17;;;;;;;13.07;11.87;;;14.60;99.90;;;;;;5071283;28;20659;-78
2021/08/21 04:00:46;;;;;;;14.33;13.03;;;14.50;99.90;;;;;;5073827;28;20656;-78
2021/08/21 04:03:13;;;;;;;12.10;11.00;;;14.60;99.90;;;;;;5088055;28;20651;-78
2021/08/21 04:05:41;;;;;;;12.47;11.30;;;14.50;99.90;;;;;;5083577;28;21233;-78
2021/08/21 04:08:09;;;;;;;11.63;10.53;;;14.40;99.90;;;;;;5070261;28;20723;-78
2021/08/21 04:10:38;;;;;;;10.97;10.00;;;14.40;99.90;;;;;;5085791;28;20625;-78
2021/08/21 04:13:05;;;;;;;11.00;9.97;;;14.40;99.90;;;;;;5085391;28;20989;-78
2021/08/21 04:15:32;;;;;;;10.93;10.03;;;14.40;99.90;;;;;;5072935;28;21049;-77
2021/08/21 04:18:00;;;;;;;13.23;11.40;;;14.30;99.90;;;;;;5090364;28;20656;-78
2021/08/21 04:20:27;;;;;;;12.67;11.43;;;14.40;99.90;;;;;;5087885;28;20716;-78
2021/08/21 04:22:56;;;;;;;13.47;12.20;;;14.40;99.90;;;;;;5089588;28;21193;-78
2021/08/21 04:25:23;;;;;;;12.07;10.97;;;14.40;99.90;;;;;;5084858;28;21095;-78
2021/08/21 04:27:52;;;;;;;13.57;12.27;;;14.40;99.90;;;;;;5070293;28;20664;-78
2021/08/21 04:30:19;;;;;;;13.33;12.00;;;14.40;99.90;;;;;;5073568;28;20636;-78
2021/08/21 04:32:46;;;;;;;13.77;12.37;;;14.40;99.90;;;;;;5078076;28;21166;-78
2021/08/21 04:35:14;;;;;;;17.13;12.80;;;14.40;99.90;;;;;;5088100;28;21177;-77
2021/08/21 04:37:42;;;;;;;14.20;12.80;;;14.40;99.90;;;;;;5082132;28;20704;-78
2021/08/21 04:40:10;;;;;;;13.00;11.80;;;14.30;99.90;;;;;;5084694;28;20617;-78
2021/08/21 04:42:37;;;;;;;13.23;11.93;;;14.30;99.90;;;;;;5073303;28;21011;-78
2021/08/21 04:45:04;;;;;;;13.63;12.30;;;14.30;99.90;;;;;;5083511;28;20686;-78
2021/08/21 04:47:31;;;;;;;12.70;11.40;;;14.40;99.90;;;;;;5088067;28;20652;-78
2021/08/21 04:49:58;;;;;;;13.23;12.10;;;14.40;99.90;;;;;;5079870;28;20663;-78
2021/08/21 04:52:27;;;;;;;11.50;10.47;;;14.40;99.90;;;;;;5081354;28;20651;-78
2021/08/21 04:54:53;;;;;;;12.23;11.13;;;14.40;99.90;;;;;;5084182;28;21009;-77
2021/08/21 04:57:20;;;;;;;12.30;11.10;;;14.40;99.90;;;;;;5089283;28;21236;-78
2021/08/21 04:59:47;;;;;;;12.87;11.77;;;14.50;99.90;;;;;;5081602;28;20718;-78
2021/08/21 05:02:14;;;;;;;12.53;11.23;;;14.60;99.90;;;;;;5070083;28;20728;-78
2021/08/21 05:04:41;;;;;;;12.23;11.13;;;14.70;99.90;;;;;;5072136;28;21009;-78
2021/08/21 05:07:09;;;;;;;12.13;10.93;;;14.70;99.90;;;;;;5087337;28;20662;-77
2021/08/21 05:09:37;;;;;;;12.07;11.00;;;14.80;99.90;;;;;;5089938;28;20662;-78
2021/08/21 05:12:04;;;;;;;12.20;11.10;;;14.90;99.90;;;;;;5078979;28;20680;-78
2021/08/21 05:14:31;;;;;;;12.70;11.60;;;15.00;99.90;;;;;;5077464;28;20976;-77
2021/08/21 05:16:58;;;;;;;12.93;11.70;;;15.00;99.90;;;;;;5069852;28;20721;-78
2021/08/21 05:19:29;;;;;;;13.60;12.20;;;15.10;99.90;;;;;;5078741;28;20686;-78
2021/08/21 05:21:58;;;;;;;12.50;11.30;;;15.10;99.90;;;;;;5072729;28;20749;-78
2021/08/21 05:24:25;;;;;;;11.80;10.80;;;15.20;99.90;;;;;;5082430;28;20621;-78
2021/08/21 05:26:53;;;;;;;12.43;11.43;;;15.30;99.90;;;;;;5071364;28;21229;-78
2021/08/21 05:29:20;;;;;;;12.43;11.33;;;15.30;99.90;;;;;;5088389;28;20673;-77
2021/08/21 05:31:47;;;;;;;11.50;10.50;;;15.30;99.90;;;;;;5081195;28;20711;-78
2021/08/21 05:34:15;;;;;;;11.97;10.97;;;15.40;99.90;;;;;;5091524;28;20656;-78
2021/08/21 05:36:42;;;;;;;12.23;10.90;;;15.50;99.90;;;;;;5081800;28;20720;-78
2021/08/21 05:39:10;;;;;;;12.20;11.10;;;15.50;99.90;;;;;;5073304;28;20656;-78
2021/08/21 05:41:37;;;;;;;11.90;10.80;;;15.60;99.90;;;;;;5092582;28;20612;-78
2021/08/21 05:44:05;;;;;;;12.27;11.13;;;15.70;99.90;;;;;;5092716;28;20605;-78
2021/08/21 05:46:32;;;;;;;12.43;11.27;;;15.70;99.90;;;;;;5092835;28;21185;-78
2021/08/21 05:48:59;;;;;;;12.47;11.27;;;15.70;99.90;;;;;;5086594;28;20617;-78
2021/08/21 05:51:28;;;;;;;11.90;10.50;;;15.80;99.90;;;;;;5085650;28;20641;-77
2021/08/21 05:53:55;;;;;;;11.10;10.10;;;15.90;99.90;;;;;;5066885;28;20981;-78
2021/08/21 05:56:22;;;;;;;10.30;9.40;;;16.00;99.90;;;;;;5073123;28;20712;-78
2021/08/21 05:58:49;;;;;;;12.80;10.07;;;16.00;99.90;;;;;;5091429;28;20714;-78
2021/08/21 06:01:17;;;;;;;12.53;10.57;;;16.10;99.90;;;;;;5075395;28;20641;-78
2021/08/21 06:03:44;;;;;;;11.03;10.07;;;16.20;99.90;;;;;;5082361;28;20703;-78
2021/08/21 06:06:12;;;;;;;11.97;10.73;;;16.20;99.90;;;;;;5092609;28;20979;-78
2021/08/21 06:08:39;;;;;;;10.57;9.57;;;16.20;99.90;;;;;;5071795;28;20744;-78
2021/08/21 06:11:05;;;;;;;11.07;10.07;;;16.30;99.90;;;;;;5071237;28;20649;-78
2021/08/21 06:13:33;;;;;;;11.60;10.43;;;16.40;99.90;;;;;;5075761;28;20629;-78
2021/08/21 06:16:00;;;;;;;11.80;10.63;;;16.50;99.90;;;;;;5074068;28;20665;-78
2021/08/21 06:18:28;;;;;;;11.07;9.83;;;16.50;99.90;;;;;;5078894;28;20707;-78
2021/08/21 06:20:55;;;;;;;11.20;10.07;;;16.50;99.90;;;;;;5070890;28;20960;-78
2021/08/21 06:23:22;;;;;;;11.50;10.40;;;16.60;99.90;;;;;;5079437;28;21027;-78
2021/08/21 06:25:49;;;;;;;10.87;9.90;;;16.70;99.90;;;;;;5090564;28;20619;-78
2021/08/21 06:28:16;;;;;;;10.80;9.90;;;16.70;99.90;;;;;;5082374;28;20736;-78
2021/08/21 06:30:43;;;;;;;11.77;10.67;;;16.80;99.90;;;;;;5071750;28;20634;-78
2021/08/21 06:33:09;;;;;;;10.13;9.23;;;16.80;99.90;;;;;;5077385;28;20640;-78
2021/08/21 06:35:38;;;;;;;10.73;9.70;;;16.80;99.90;;;;;;5089460;28;20626;-78
2021/08/21 06:38:05;;;;;;;11.60;9.43;;;17.00;99.90;;;;;;5090076;28;21244;-78
2021/08/21 06:40:31;;;;;;;9.67;8.67;;;17.10;99.90;;;;;;5087926;28;20693;-78
2021/08/21 06:42:58;;;;;;;9.70;8.80;;;17.10;99.90;;;;;;5090816;28;20719;-78
2021/08/21 06:45:25;;;;;;;9.27;8.40;;;17.20;99.90;;;;;;5080046;28;21061;-78
2021/08/21 06:47:55;;;;;;;10.30;8.20;;;17.30;99.90;;;;;;5070566;28;20628;-77
2021/08/21 06:50:23;;;;;;;9.27;8.47;;;17.40;99.90;;;;;;5080608;28;21126;-78
2021/08/21 06:52:52;;;;;;;11.50;9.27;;;17.40;99.90;;;;;;5088632;28;20718;-76
2021/08/21 06:55:18;;;;;;;9.93;9.03;;;17.40;99.90;;;;;;5072799;28;20994;-77
2021/08/21 06:57:45;;;;;;;9.63;8.83;;;17.50;99.90;;;;;;5080817;28;20801;-77
2021/08/21 07:00:16;;;;;;;9.17;8.27;;;17.60;99.90;;;;;;5066623;28;20657;-78
2021/08/21 07:02:43;;;;;;;9.70;8.70;;;17.80;99.90;;;;;;5087083;28;20672;-77
2021/08/21 07:05:10;;;;;;;9.27;8.47;;;17.90;99.90;;;;;;5085059;28;20617;-78
2021/08/21 07:07:37;;;;;;;10.00;9.10;;;18.00;99.90;;;;;;5079939;28;21198;-77
2021/08/21 07:10:07;;;;;;;8.73;7.80;;;18.20;99.90;;;;;;5071833;28;20682;-78
2021/08/21 07:12:34;;;;;;;8.50;7.70;;;18.20;99.90;;;;;;5070163;28;20646;-76
2021/08/21 07:15:02;;;;;;;7.47;6.77;;;18.20;99.90;;;;;;5069356;28;20627;-78
2021/08/21 07:17:28;;;;;;;7.47;6.87;;;18.10;99.90;;;;;;5069585;28;20603;-78
2021/08/21 07:19:55;;;;;;;8.77;7.87;;;18.20;99.90;;;;;;5070752;28;20689;-78
2021/08/21 07:22:22;;;;;;;11.90;8.50;;;18.20;99.90;;;;;;5068622;28;20624;-78
2021/08/21 07:24:49;;;;;;;9.90;8.23;;;18.30;99.90;;;;;;5069587;28;20612;-76
2021/08/21 07:27:17;;;;;;;14.17;9.03;;;18.40;99.90;;;;;;5070031;28;20625;-78
2021/08/21 07:29:44;;;;;;;10.27;8.90;;;18.50;99.90;;;;;;5070099;28;20633;-75
2021/08/21 07:32:11;;;;;;;8.87;8.07;;;18.80;99.90;;;;;;5070124;28;20616;-78
2021/08/21 07:34:40;;;;;;;8.70;7.90;;;19.10;99.50;;;;;;5071038;28;20652;-78
2021/08/21 07:37:07;;;;;;;11.50;7.30;;;19.10;99.70;;;;;;5071230;28;20969;-78
2021/08/21 07:39:34;;;;;;;9.70;8.10;;;19.20;99.40;;;;;;5070755;28;20657;-77
2021/08/21 07:42:01;;;;;;;9.50;8.50;;;19.30;98.90;;;;;;5070500;28;21170;-77
2021/08/21 07:44:29;;;;;;;8.73;8.03;;;19.40;99.50;;;;;;5070231;28;20720;-77
2021/08/21 07:46:56;;;;;;;7.73;7.13;;;19.50;99.10;;;;;;5070888;28;20702;-77
2021/08/21 07:49:23;;;;;;;8.37;7.67;;;19.50;99.20;;;;;;5070105;28;20618;-75
2021/08/21 07:51:50;;;;;;;9.43;8.53;;;19.70;98.40;;;;;;5070239;28;20617;-75
2021/08/21 07:54:17;;;;;;;9.17;7.33;;;19.80;98.20;;;;;;5070309;28;20648;-75
2021/08/21 07:56:43;;;;;;;7.30;6.60;;;19.90;97.90;;;;;;5070536;28;20705;-75
2021/08/21 07:59:10;;;;;;;7.20;6.50;;;20.00;97.60;;;;;;5070072;28;20692;-77
2021/08/21 08:01:39;;;;;;;7.87;7.17;;;20.00;97.90;;;;;;5070340;28;20622;-76
2021/08/21 08:04:05;;;;;;;8.40;7.57;;;20.20;97.60;;;;;;5070426;28;20610;-77
2021/08/21 08:06:32;;;;;;;9.47;8.00;;;20.30;97.10;;;;;;5070481;28;20661;-77
2021/08/21 08:08:59;;;;;;;9.23;6.67;;;20.40;97.50;;;;;;5070459;28;21221;-77
2021/08/21 08:11:26;;;;;;;8.07;6.73;;;20.40;96.40;;;;;;5069727;28;20716;-77
2021/08/21 08:13:53;;;;;;;7.90;6.73;;;20.60;95.80;;;;;;5068501;28;20670;-75
2021/08/21 08:16:20;;;;;;;8.03;7.23;;;20.60;96.70;;;;;;5070189;28;20663;-75
2021/08/21 08:18:48;;;;;;;7.37;6.67;;;20.80;96.20;;;;;;5069908;28;20701;-75
2021/08/21 08:21:18;;;;;;;7.50;6.80;;;20.80;96.40;;;;;;5069241;28;20633;-75
2021/08/21 08:23:45;;;;;;;7.80;7.00;;;21.00;96.50;;;;;;5069516;28;20724;-75
2021/08/21 08:26:12;;;;;;;8.90;7.97;;;21.00;96.10;;;;;;5069361;28;21294;-75
2021/08/21 08:28:39;;;;;;;7.67;7.07;;;21.00;97.00;;;;;;5100545;28;20648;-77
2021/08/21 08:31:06;;;;;;;8.57;7.10;;;21.10;97.30;;;;;;5086446;28;20692;-77
2021/08/21 08:33:34;;;;;;;7.77;6.87;;;21.00;96.00;;;;;;5068369;28;20643;-77
2021/08/21 08:36:02;;;;;;;8.20;7.50;;;21.00;96.20;;;;;;5086690;28;21068;-77
2021/08/21 08:38:29;;;;;;;8.37;7.67;;;21.20;95.90;;;;;;5089893;28;20637;-75
2021/08/21 08:40:56;;;;;;;7.83;6.90;;;21.40;95.30;;;;;;5089755;28;21158;-75
2021/08/21 08:43:23;;;;;;;5.43;4.93;;;21.50;96.20;;;;;;5089493;28;20627;-75
2021/08/21 08:45:50;;;;;;;6.27;5.27;;;21.60;96.10;;;;;;5089579;28;20670;-75
2021/08/21 08:48:17;;;;;;;7.00;6.40;;;21.80;94.80;;;;;;5090146;28;20614;-75
2021/08/21 08:50:45;;;;;;;9.93;6.50;;;21.80;95.20;;;;;;5089301;28;20651;-76
2021/08/21 08:53:13;;;;;;;7.50;6.47;;;21.90;94.00;;;;;;5089217;28;21236;-75
2021/08/21 08:55:40;;;;;;;7.30;6.10;;;22.00;94.20;;;;;;5090021;28;21159;-75
2021/08/21 08:58:07;;;;;;;6.40;5.80;;;22.30;93.60;;;;;;5090163;28;21085;-75
2021/08/21 09:00:34;;;;;;;6.30;5.67;;;22.20;94.90;;;;;;5092441;28;20756;-75
2021/08/21 09:03:03;;;;;;;6.27;5.60;;;22.10;94.80;;;;;;5092660;28;20633;-74
2021/08/21 09:05:37;;;;;;;6.33;5.73;;;22.30;93.90;;;;;;5094131;28;20730;-75
2021/08/21 09:08:04;;;;;;;7.00;6.30;;;22.50;94.30;;;;;;5094223;28;21161;-75
2021/08/21 09:10:34;;;;;;;7.03;6.33;;;22.60;94.20;;;;;;5093772;28;21230;-77
2021/08/21 09:13:06;;;;;;;5.90;5.40;;;22.50;94.20;;;;;;5093375;28;20672;-75
2021/08/21 09:15:35;;;;;;;6.70;5.93;;;22.60;94.30;;;;;;5094319;28;21196;-75
2021/08/21 09:18:08;;;;;;;6.00;5.50;;;22.70;94.30;;;;;;5093641;28;21287;-75
2021/08/21 09:20:50;;;;;;;6.53;5.97;;;22.80;93.50;;;;;;5094212;28;20612;-75
2021/08/21 09:23:23;;;;;;;5.97;5.47;;;22.80;93.60;;;;;;5093707;28;20617;-75
2021/08/21 09:25:53;;;;;;;6.60;6.00;;;22.70;93.90;;;;;;5093890;28;20613;-75
2021/08/21 09:28:22;;;;;;;5.77;5.37;;;22.70;94.00;;;;;;5093999;28;21241;-75
2021/08/21 09:31:00;;;;;;;8.40;5.77;;;22.90;93.70;;;;;;5092112;28;20662;-77
2021/08/21 09:33:27;;;;;;;6.20;5.70;;;23.20;93.10;;;;;;5072848;28;21195;-77
2021/08/21 09:35:54;;;;;;;6.03;5.40;;;23.40;92.20;;;;;;5073246;28;20628;-78
2021/08/21 09:38:24;;;;;;;6.80;6.10;;;23.60;92.00;;;;;;5073420;28;20776;-77
2021/08/21 09:41:00;;;;;;;6.27;5.67;;;23.60;92.50;;;;;;5072915;28;20627;-77
2021/08/21 09:43:31;;;;;;;6.60;5.90;;;23.70;92.90;;;;;;5072797;28;20624;-77
2021/08/21 09:46:12;;;;;;;6.20;5.63;;;23.80;91.60;;;;;;5073054;28;20673;-78
2021/08/21 09:48:58;;;;;;;5.83;5.33;;;23.90;91.80;;;;;;5073098;28;20636;-77
2021/08/21 09:51:40;;;;;;;6.83;6.13;;;24.00;91.70;;;;;;5072831;28;20946;-77
2021/08/21 09:54:09;;;;;;;6.70;5.97;;;24.20;91.20;;;;;;5072703;28;20648;-77
2021/08/21 09:56:39;;;;;;;7.63;6.93;;;24.20;91.90;;;;;;5072774;28;20671;-77
2021/08/21 09:59:07;;;;;;;6.63;6.03;;;24.10;91.40;;;;;;5072952;28;20697;-77
2021/08/21 10:01:35;;;;;;;6.40;5.90;;;24.30;90.30;;;;;;5071449;28;21231;-78
2021/08/21 10:04:03;;;;;;;6.97;6.47;;;24.50;91.40;;;;;;5071819;28;20649;-78
2021/08/21 10:06:30;;;;;;;6.63;6.13;;;24.50;91.60;;;;;;5072700;28;20668;-77
2021/08/21 10:09:00;;;;;;;6.47;5.97;;;24.70;90.80;;;;;;5072839;28;20686;-78
2021/08/21 10:11:28;;;;;;;6.63;6.13;;;24.80;91.10;;;;;;5071245;28;20629;-77
2021/08/21 10:13:57;;;;;;;8.10;7.20;;;25.00;90.60;;;;;;5072284;28;20621;-78
2021/08/21 10:16:25;;;;;;;6.67;6.10;;;25.10;89.90;;;;;;5071994;28;20792;-77
2021/08/21 10:18:55;;;;;;;8.00;7.20;;;25.20;90.10;;;;;;5071862;28;20674;-78
2021/08/21 10:21:22;;;;;;;7.70;6.43;;;25.20;90.40;;;;;;5072000;28;20617;-78
2021/08/21 10:23:51;;;;;;;7.40;6.87;;;25.30;90.00;;;;;;5072090;28;20621;-78
2021/08/21 10:26:26;;;;;;;6.90;6.40;;;25.40;87.00;;;;;;5072069;28;20670;-78
2021/08/21 10:28:56;;;;;;;8.07;7.40;;;25.50;89.20;;;;;;5072223;28;20715;-77
2021/08/21 10:31:40;;;;;;;7.67;6.97;;;25.50;90.30;;;;;;5076960;28;20953;-78
2021/08/21 10:34:08;;;;;;;8.33;7.03;;;25.70;88.30;;;;;;5090930;28;20686;-78
2021/08/21 10:36:50;;;;;;;7.83;7.13;;;25.90;87.00;;;;;;5072246;28;20670;-78
2021/08/21 10:39:23;;;;;;;9.40;8.50;;;26.10;85.40;;;;;;5071956;28;20722;-78
2021/08/21 10:41:51;;;;;;;7.80;6.90;;;26.20;87.70;;;;;;5071497;28;20675;-78
2021/08/21 10:44:44;;;;;;;7.57;7.03;;;26.10;84.40;;;;;;5071663;28;21204;-78
2021/08/21 10:47:39;;;;;;;7.23;6.60;;;26.10;87.20;;;;;;5062116;28;20660;-77
2021/08/21 10:50:29;;;;;;;7.43;6.70;;;26.10;86.00;;;;;;5071703;28;20614;-78
2021/08/21 10:52:57;;;;;;;8.10;7.40;;;26.20;82.60;;;;;;5071356;28;21482;-78
2021/08/21 10:55:26;;;;;;;7.80;7.00;;;26.10;84.20;;;;;;5071754;28;20638;-78
2021/08/21 10:58:02;;;;;;;7.73;7.00;;;26.60;86.80;;;;;;5071514;28;21026;-78
2021/08/21 11:00:48;;;;;;;8.13;7.27;;;26.80;84.50;;;;;;5071363;28;20704;-78
2021/08/21 11:03:16;;;;;;;8.23;7.00;;;26.90;81.60;;;;;;5069950;28;20614;-78
2021/08/21 11:05:55;;;;;;;8.73;7.47;;;27.10;82.60;;;;;;5075290;28;20650;-78
2021/08/21 11:08:23;;;;;;;7.10;6.60;;;27.20;80.10;;;;;;5071398;28;20616;-78
2021/08/21 11:11:25;;;;;;;7.90;7.20;;;27.40;81.10;;;;;;5071252;28;20629;-78
2021/08/21 11:13:56;;;;;;;8.63;8.00;;;27.50;78.80;;;;;;5071000;28;20629;-78
2021/08/21 11:16:24;;;;;;;7.07;6.47;;;27.50;80.50;;;;;;5071574;28;20626;-77
2021/08/21 11:18:53;;;;;;;8.77;7.87;;;27.70;79.70;;;;;;5071153;28;20645;-77
2021/08/21 11:21:34;;;;;;;8.70;7.47;;;27.60;79.30;;;;;;5070796;28;20621;-77
2021/08/21 11:24:02;;;;;;;7.63;7.03;;;27.70;80.20;;;;;;5070696;28;20671;-78
2021/08/21 11:26:30;;;;;;;8.80;7.30;;;27.90;77.30;;;;;;5071001;28;20732;-77
2021/08/21 11:29:07;;;;;;;7.50;6.87;;;27.90;76.50;;;;;;5070860;28;20665;-78
2021/08/21 11:31:58;;;;;;;7.73;7.13;;;27.80;75.30;;;;;;5077178;28;20636;-77
2021/08/21 11:34:26;;;;;;;7.47;6.87;;;27.90;75.60;;;;;;5087843;28;20703;-77
2021/08/21 11:36:52;;;;;;;7.43;6.80;;;27.90;77.60;;;;;;5081569;28;20657;-77
2021/08/21 11:39:19;;;;;;;7.53;6.93;;;28.30;78.50;;;;;;5100079;28;20743;-78
2021/08/21 11:41:57;;;;;;;7.27;6.77;;;28.40;77.30;;;;;;5090231;28;20648;-75
2021/08/21 11:44:28;;;;;;;6.80;6.23;;;28.40;74.00;;;;;;5091034;28;21058;-77
2021/08/21 11:47:05;;;;;;;9.13;7.27;;;28.10;73.50;;;;;;5090935;28;20613;-78
2021/08/21 11:49:32;;;;;;;6.90;6.47;;;28.50;73.00;;;;;;5091205;28;20655;-78
2021/08/21 11:52:01;;;;;;;6.87;6.27;;;29.10;73.70;;;;;;5090164;28;20662;-75
2021/08/21 11:54:28;;;;;;;6.90;6.27;;;29.80;72.50;;;;;;5090313;28;20629;-78
2021/08/21 11:57:00;;;;;;;5.70;5.30;;;30.10;68.10;;;;;;5090777;28;20620;-76
2021/08/21 11:59:28;;;;;;;7.13;6.60;;;30.70;66.20;;;;;;5090646;28;20644;-76
2021/08/21 12:02:05;;;;;;;7.53;6.90;;;31.10;65.00;;;;;;5089087;28;20617;-76
2021/08/21 12:04:33;;;;;;;6.17;5.67;;;31.30;64.40;;;;;;5090763;28;20624;-76
2021/08/21 12:06:59;;;;;;;6.73;6.23;;;32.30;63.70;;;;;;5089971;28;20965;-76
2021/08/21 12:09:26;;;;;;;6.27;5.80;;;33.10;61.30;;;;;;5090735;28;20625;-77
2021/08/21 12:11:54;;;;;;;4.93;4.63;;;33.90;58.30;;;;;;5089930;28;20669;-77
2021/08/21 12:14:25;;;;;;;5.53;5.13;;;34.40;56.40;;;;;;5090546;28;20661;-77
2021/08/21 12:16:57;;;;;;;4.90;4.50;;;34.70;54.40;;;;;;5091006;28;20711;-77
2021/08/21 12:19:25;;;;;;;5.30;4.80;;;35.10;52.90;;;;;;5090002;28;20659;-77
2021/08/21 12:21:56;;;;;;;4.93;4.63;;;35.20;52.30;;;;;;5089880;28;20647;-77
2021/08/21 12:24:23;;;;;;;5.67;5.37;;;35.30;51.90;;;;;;5090455;28;20618;-78
2021/08/21 12:26:50;;;;;;;6.03;5.63;;;35.90;51.80;;;;;;5090694;28;20224;-77
2021/08/21 12:29:24;;;;;;;7.93;5.47;;;35.90;52.20;;;;;;5090333;28;20251;-77
2021/08/21 12:31:51;;;;;;;5.20;4.80;;;36.40;49.00;;;;;;5079959;28;20272;-77
2021/08/21 12:34:20;;;;;;;6.27;5.87;;;35.30;50.10;;;;;;5069314;28;20733;-77
2021/08/21 12:36:48;;;;;;;4.90;4.60;;;34.70;51.00;;;;;;5070046;28;20623;-77
2021/08/21 12:39:20;;;;;;;5.27;4.97;;;34.50;51.70;;;;;;5069981;28;20671;-78
2021/08/21 12:41:50;;;;;;;5.90;5.50;;;34.60;52.80;;;;;;5069574;28;20625;-78
2021/08/21 12:44:19;;;;;;;5.97;5.40;;;34.90;50.30;;;;;;5069605;28;20645;-77
2021/08/21 12:46:52;;;;;;;5.00;4.70;;;35.10;50.40;;;;;;5070322;28;20632;-77
2021/08/21 12:49:30;;;;;;;6.00;4.93;;;35.30;48.10;;;;;;5070112;28;20703;-77